sensor_id;sensor_type;location;lat;lon;timestamp;P1;durP1;ratioP1;P2;durP2;ratioP2
24901;SDS011;31328;51.402;0.016;2022-12-26T00:01:46;5.27;;;1.47;;
24901;SDS011;31328;51.402;0.016;2022-12-26T00:04:14;6.70;;;2.10;;
24901;SDS011;31328;51.402;0.016;2022-12-26T00:06:41;6.37;;;1.50;;
24901;SDS011;31328;51.402;0.016;2022-12-26T00:09:07;9.10;;;1.63;;
24901;SDS011;31328;51.402;0.016;2022-12-26T00:11:34;14.73;;;3.23;;
24901;SDS011;31328;51.402;0.016;2022-12-26T00:14:06;5.03;;;1.87;;
24901;SDS011;31328;51.402;0.016;2022-12-26T00:16:38;12.03;;;1.77;;
24901;SDS011;31328;51.402;0.016;2022-12-26T00:19:09;9.10;;;3.63;;
24901;SDS011;31328;51.402;0.016;2022-12-26T00:21:35;12.57;;;1.40;;
24901;SDS011;31328;51.402;0.016;2022-12-26T00:24:02;5.13;;;1.37;;
24901;SDS011;31328;51.402;0.016;2022-12-26T00:26:30;4.73;;;1.30;;
24901;SDS011;31328;51.402;0.016;2022-12-26T00:28:58;12.03;;;2.27;;
24901;SDS011;31328;51.402;0.016;2022-12-26T00:31:25;8.77;;;1.37;;
24901;SDS011;31328;51.402;0.016;2022-12-26T00:33:53;9.87;;;1.40;;
24901;SDS011;31328;51.402;0.016;2022-12-26T00:36:24;6.47;;;2.10;;
24901;SDS011;31328;51.402;0.016;2022-12-26T00:38:54;7.47;;;1.85;;
24901;SDS011;31328;51.402;0.016;2022-12-26T00:41:22;8.53;;;2.13;;
24901;SDS011;31328;51.402;0.016;2022-12-26T00:43:48;10.47;;;1.80;;
24901;SDS011;31328;51.402;0.016;2022-12-26T00:46:15;12.13;;;2.73;;
24901;SDS011;31328;51.402;0.016;2022-12-26T00:48:42;13.87;;;2.83;;
24901;SDS011;31328;51.402;0.016;2022-12-26T00:51:08;10.73;;;2.87;;
24901;SDS011;31328;51.402;0.016;2022-12-26T00:53:35;9.83;;;1.43;;
24901;SDS011;31328;51.402;0.016;2022-12-26T00:56:01;6.87;;;1.70;;
24901;SDS011;31328;51.402;0.016;2022-12-26T00:58:28;9.73;;;2.30;;
24901;SDS011;31328;51.402;0.016;2022-12-26T01:00:55;11.57;;;2.53;;
24901;SDS011;31328;51.402;0.016;2022-12-26T01:03:57;9.30;;;1.90;;
24901;SDS011;31328;51.402;0.016;2022-12-26T01:06:24;9.33;;;2.40;;
24901;SDS011;31328;51.402;0.016;2022-12-26T01:08:51;5.57;;;1.63;;
24901;SDS011;31328;51.402;0.016;2022-12-26T01:11:18;6.40;;;1.70;;
24901;SDS011;31328;51.402;0.016;2022-12-26T01:14:03;6.07;;;1.73;;
24901;SDS011;31328;51.402;0.016;2022-12-26T01:16:30;13.50;;;1.97;;
24901;SDS011;31328;51.402;0.016;2022-12-26T01:18:56;7.63;;;1.50;;
24901;SDS011;31328;51.402;0.016;2022-12-26T01:21:22;10.07;;;2.13;;
24901;SDS011;31328;51.402;0.016;2022-12-26T01:23:48;7.63;;;2.00;;
24901;SDS011;31328;51.402;0.016;2022-12-26T01:26:15;4.97;;;1.00;;
24901;SDS011;31328;51.402;0.016;2022-12-26T01:28:41;6.60;;;1.90;;
24901;SDS011;31328;51.402;0.016;2022-12-26T01:31:07;8.70;;;1.73;;
24901;SDS011;31328;51.402;0.016;2022-12-26T01:33:34;10.63;;;2.67;;
24901;SDS011;31328;51.402;0.016;2022-12-26T01:36:01;8.80;;;1.67;;
24901;SDS011;31328;51.402;0.016;2022-12-26T01:38:27;9.33;;;1.43;;
24901;SDS011;31328;51.402;0.016;2022-12-26T01:40:53;9.67;;;1.87;;
24901;SDS011;31328;51.402;0.016;2022-12-26T01:43:49;11.97;;;2.00;;
24901;SDS011;31328;51.402;0.016;2022-12-26T01:49:00;5.67;;;1.40;;
24901;SDS011;31328;51.402;0.016;2022-12-26T01:51:32;7.00;;;2.00;;
24901;SDS011;31328;51.402;0.016;2022-12-26T01:54:03;7.90;;;1.67;;
24901;SDS011;31328;51.402;0.016;2022-12-26T01:56:34;7.97;;;1.00;;
24901;SDS011;31328;51.402;0.016;2022-12-26T01:59:07;10.00;;;1.50;;
24901;SDS011;31328;51.402;0.016;2022-12-26T02:01:37;11.70;;;1.67;;
24901;SDS011;31328;51.402;0.016;2022-12-26T02:04:06;6.40;;;1.10;;
24901;SDS011;31328;51.402;0.016;2022-12-26T02:06:55;11.03;;;1.77;;
24901;SDS011;31328;51.402;0.016;2022-12-26T02:09:21;12.00;;;1.73;;
24901;SDS011;31328;51.402;0.016;2022-12-26T02:11:53;8.27;;;1.83;;
24901;SDS011;31328;51.402;0.016;2022-12-26T02:14:25;9.23;;;1.93;;
24901;SDS011;31328;51.402;0.016;2022-12-26T02:16:52;9.70;;;1.73;;
24901;SDS011;31328;51.402;0.016;2022-12-26T02:19:31;10.73;;;2.50;;
24901;SDS011;31328;51.402;0.016;2022-12-26T02:22:29;12.33;;;2.60;;
24901;SDS011;31328;51.402;0.016;2022-12-26T02:30:59;5.77;;;1.60;;
24901;SDS011;31328;51.402;0.016;2022-12-26T02:36:41;5.70;;;1.50;;
24901;SDS011;31328;51.402;0.016;2022-12-26T02:48:23;8.43;;;1.27;;
24901;SDS011;31328;51.402;0.016;2022-12-26T02:57:04;8.97;;;1.90;;
24901;SDS011;31328;51.402;0.016;2022-12-26T02:59:54;11.27;;;1.83;;
24901;SDS011;31328;51.402;0.016;2022-12-26T03:02:49;8.73;;;1.80;;
24901;SDS011;31328;51.402;0.016;2022-12-26T03:06:13;6.93;;;1.30;;
24901;SDS011;31328;51.402;0.016;2022-12-26T03:09:06;10.40;;;1.67;;
24901;SDS011;31328;51.402;0.016;2022-12-26T03:11:55;6.37;;;1.40;;
24901;SDS011;31328;51.402;0.016;2022-12-26T03:14:47;8.57;;;2.00;;
24901;SDS011;31328;51.402;0.016;2022-12-26T03:17:24;8.60;;;1.80;;
24901;SDS011;31328;51.402;0.016;2022-12-26T03:19:55;5.57;;;1.07;;
24901;SDS011;31328;51.402;0.016;2022-12-26T03:25:07;7.50;;;1.77;;
24901;SDS011;31328;51.402;0.016;2022-12-26T03:27:57;5.27;;;1.00;;
24901;SDS011;31328;51.402;0.016;2022-12-26T03:30:24;6.83;;;1.80;;
24901;SDS011;31328;51.402;0.016;2022-12-26T03:33:09;6.03;;;2.33;;
24901;SDS011;31328;51.402;0.016;2022-12-26T03:35:56;8.80;;;2.07;;
24901;SDS011;31328;51.402;0.016;2022-12-26T03:38:25;8.43;;;2.20;;
24901;SDS011;31328;51.402;0.016;2022-12-26T03:41:02;9.83;;;1.40;;
24901;SDS011;31328;51.402;0.016;2022-12-26T03:44:56;7.20;;;1.10;;
24901;SDS011;31328;51.402;0.016;2022-12-26T03:47:23;5.00;;;0.90;;
24901;SDS011;31328;51.402;0.016;2022-12-26T03:53:26;5.83;;;0.70;;
24901;SDS011;31328;51.402;0.016;2022-12-26T03:59:29;4.93;;;0.60;;
24901;SDS011;31328;51.402;0.016;2022-12-26T04:02:19;7.67;;;1.00;;
24901;SDS011;31328;51.402;0.016;2022-12-26T04:05:05;6.87;;;0.80;;
24901;SDS011;31328;51.402;0.016;2022-12-26T04:07:54;2.97;;;0.80;;
24901;SDS011;31328;51.402;0.016;2022-12-26T04:10:43;5.23;;;1.53;;
24901;SDS011;31328;51.402;0.016;2022-12-26T04:16:31;7.50;;;1.10;;
24901;SDS011;31328;51.402;0.016;2022-12-26T04:22:34;5.67;;;0.87;;
24901;SDS011;31328;51.402;0.016;2022-12-26T04:28:44;1.70;;;0.63;;
24901;SDS011;31328;51.402;0.016;2022-12-26T04:31:31;0.43;;;0.30;;
24901;SDS011;31328;51.402;0.016;2022-12-26T04:34:53;2.07;;;0.43;;
24901;SDS011;31328;51.402;0.016;2022-12-26T04:37:38;2.43;;;0.43;;
24901;SDS011;31328;51.402;0.016;2022-12-26T04:40:27;1.57;;;0.27;;
24901;SDS011;31328;51.402;0.016;2022-12-26T04:43:15;1.67;;;0.40;;
24901;SDS011;31328;51.402;0.016;2022-12-26T04:46:01;2.00;;;0.50;;
24901;SDS011;31328;51.402;0.016;2022-12-26T04:48:27;3.60;;;0.57;;
24901;SDS011;31328;51.402;0.016;2022-12-26T04:51:12;2.70;;;0.50;;
24901;SDS011;31328;51.402;0.016;2022-12-26T04:53:39;1.43;;;1.13;;
24901;SDS011;31328;51.402;0.016;2022-12-26T04:56:05;4.30;;;1.33;;
24901;SDS011;31328;51.402;0.016;2022-12-26T04:58:33;1.40;;;0.40;;
24901;SDS011;31328;51.402;0.016;2022-12-26T05:00:59;1.67;;;0.30;;
24901;SDS011;31328;51.402;0.016;2022-12-26T05:03:45;1.63;;;0.40;;
24901;SDS011;31328;51.402;0.016;2022-12-26T05:06:30;1.85;;;0.45;;
24901;SDS011;31328;51.402;0.016;2022-12-26T05:09:16;3.05;;;0.77;;
24901;SDS011;31328;51.402;0.016;2022-12-26T05:12:00;3.83;;;0.70;;
24901;SDS011;31328;51.402;0.016;2022-12-26T05:14:27;2.17;;;0.70;;
24901;SDS011;31328;51.402;0.016;2022-12-26T05:16:53;2.43;;;0.90;;
24901;SDS011;31328;51.402;0.016;2022-12-26T05:19:38;1.60;;;0.50;;
24901;SDS011;31328;51.402;0.016;2022-12-26T05:22:23;2.28;;;0.60;;
24901;SDS011;31328;51.402;0.016;2022-12-26T05:25:14;2.27;;;0.60;;
24901;SDS011;31328;51.402;0.016;2022-12-26T05:28:02;1.47;;;0.40;;
24901;SDS011;31328;51.402;0.016;2022-12-26T05:30:47;3.00;;;0.60;;
24901;SDS011;31328;51.402;0.016;2022-12-26T05:33:13;0.90;;;0.47;;
24901;SDS011;31328;51.402;0.016;2022-12-26T05:35:58;3.13;;;0.73;;
24901;SDS011;31328;51.402;0.016;2022-12-26T05:38:24;2.07;;;0.60;;
24901;SDS011;31328;51.402;0.016;2022-12-26T05:40:51;5.60;;;0.70;;
24901;SDS011;31328;51.402;0.016;2022-12-26T05:43:17;0.90;;;0.13;;
24901;SDS011;31328;51.402;0.016;2022-12-26T05:45:44;2.20;;;0.63;;
24901;SDS011;31328;51.402;0.016;2022-12-26T05:48:13;0.60;;;0.17;;
24901;SDS011;31328;51.402;0.016;2022-12-26T05:50:39;0.87;;;0.10;;
24901;SDS011;31328;51.402;0.016;2022-12-26T05:53:05;1.77;;;0.20;;
24901;SDS011;31328;51.402;0.016;2022-12-26T05:55:31;0.73;;;0.10;;
24901;SDS011;31328;51.402;0.016;2022-12-26T05:57:58;0.30;;;0.20;;
24901;SDS011;31328;51.402;0.016;2022-12-26T06:00:25;0.60;;;0.20;;
24901;SDS011;31328;51.402;0.016;2022-12-26T06:02:52;1.33;;;0.10;;
24901;SDS011;31328;51.402;0.016;2022-12-26T06:05:18;0.30;;;0.10;;
24901;SDS011;31328;51.402;0.016;2022-12-26T06:07:45;3.53;;;0.43;;
24901;SDS011;31328;51.402;0.016;2022-12-26T06:10:11;1.63;;;0.20;;
24901;SDS011;31328;51.402;0.016;2022-12-26T06:12:38;1.80;;;0.23;;
24901;SDS011;31328;51.402;0.016;2022-12-26T06:15:04;1.07;;;0.20;;
24901;SDS011;31328;51.402;0.016;2022-12-26T06:17:32;4.17;;;0.30;;
24901;SDS011;31328;51.402;0.016;2022-12-26T06:19:58;0.73;;;0.10;;
24901;SDS011;31328;51.402;0.016;2022-12-26T06:22:24;2.63;;;0.57;;
24901;SDS011;31328;51.402;0.016;2022-12-26T06:24:53;2.33;;;0.40;;
24901;SDS011;31328;51.402;0.016;2022-12-26T06:27:19;5.17;;;0.43;;
24901;SDS011;31328;51.402;0.016;2022-12-26T06:29:45;3.57;;;0.30;;
24901;SDS011;31328;51.402;0.016;2022-12-26T06:32:12;1.87;;;0.40;;
24901;SDS011;31328;51.402;0.016;2022-12-26T06:34:38;2.33;;;0.30;;
24901;SDS011;31328;51.402;0.016;2022-12-26T06:37:04;1.83;;;0.50;;
24901;SDS011;31328;51.402;0.016;2022-12-26T06:39:31;1.30;;;0.57;;
24901;SDS011;31328;51.402;0.016;2022-12-26T06:41:57;2.07;;;0.50;;
24901;SDS011;31328;51.402;0.016;2022-12-26T06:44:24;5.47;;;0.83;;
24901;SDS011;31328;51.402;0.016;2022-12-26T06:46:51;1.43;;;0.40;;
24901;SDS011;31328;51.402;0.016;2022-12-26T06:49:17;1.40;;;0.30;;
24901;SDS011;31328;51.402;0.016;2022-12-26T06:51:43;3.63;;;0.67;;
24901;SDS011;31328;51.402;0.016;2022-12-26T06:54:10;4.20;;;0.63;;
24901;SDS011;31328;51.402;0.016;2022-12-26T06:56:36;3.20;;;0.30;;
24901;SDS011;31328;51.402;0.016;2022-12-26T06:59:03;0.83;;;0.23;;
24901;SDS011;31328;51.402;0.016;2022-12-26T07:01:31;0.60;;;0.30;;
24901;SDS011;31328;51.402;0.016;2022-12-26T07:03:59;3.33;;;0.50;;
24901;SDS011;31328;51.402;0.016;2022-12-26T07:06:27;4.70;;;0.20;;
24901;SDS011;31328;51.402;0.016;2022-12-26T07:08:56;3.27;;;0.37;;
24901;SDS011;31328;51.402;0.016;2022-12-26T07:11:25;1.93;;;0.20;;
24901;SDS011;31328;51.402;0.016;2022-12-26T07:13:53;2.90;;;0.30;;
24901;SDS011;31328;51.402;0.016;2022-12-26T07:16:20;2.47;;;0.80;;
24901;SDS011;31328;51.402;0.016;2022-12-26T07:18:47;2.07;;;0.37;;
24901;SDS011;31328;51.402;0.016;2022-12-26T07:21:14;2.00;;;0.40;;
24901;SDS011;31328;51.402;0.016;2022-12-26T07:23:41;1.80;;;0.20;;
24901;SDS011;31328;51.402;0.016;2022-12-26T07:26:07;1.60;;;0.20;;
24901;SDS011;31328;51.402;0.016;2022-12-26T07:28:33;2.60;;;0.93;;
24901;SDS011;31328;51.402;0.016;2022-12-26T07:31:00;1.33;;;0.20;;
24901;SDS011;31328;51.402;0.016;2022-12-26T07:33:27;0.40;;;0.33;;
24901;SDS011;31328;51.402;0.016;2022-12-26T07:36:01;2.40;;;0.30;;
24901;SDS011;31328;51.402;0.016;2022-12-26T07:38:31;2.37;;;0.20;;
24901;SDS011;31328;51.402;0.016;2022-12-26T07:40:58;3.00;;;0.30;;
24901;SDS011;31328;51.402;0.016;2022-12-26T07:43:24;1.80;;;0.37;;
24901;SDS011;31328;51.402;0.016;2022-12-26T07:45:51;1.40;;;0.47;;
24901;SDS011;31328;51.402;0.016;2022-12-26T07:48:17;1.63;;;0.30;;
24901;SDS011;31328;51.402;0.016;2022-12-26T07:50:44;1.13;;;0.30;;
24901;SDS011;31328;51.402;0.016;2022-12-26T07:53:14;4.53;;;0.53;;
24901;SDS011;31328;51.402;0.016;2022-12-26T07:55:41;3.30;;;0.60;;
24901;SDS011;31328;51.402;0.016;2022-12-26T07:58:07;3.93;;;0.93;;
24901;SDS011;31328;51.402;0.016;2022-12-26T08:00:33;2.70;;;0.33;;
24901;SDS011;31328;51.402;0.016;2022-12-26T08:02:59;4.63;;;0.60;;
24901;SDS011;31328;51.402;0.016;2022-12-26T08:05:26;2.80;;;0.53;;
24901;SDS011;31328;51.402;0.016;2022-12-26T08:07:52;6.90;;;1.30;;
24901;SDS011;31328;51.402;0.016;2022-12-26T08:10:18;4.30;;;0.80;;
24901;SDS011;31328;51.402;0.016;2022-12-26T08:12:45;2.50;;;0.90;;
24901;SDS011;31328;51.402;0.016;2022-12-26T08:15:11;6.07;;;1.43;;
24901;SDS011;31328;51.402;0.016;2022-12-26T08:17:38;4.63;;;1.17;;
24901;SDS011;31328;51.402;0.016;2022-12-26T08:20:04;3.53;;;0.43;;
24901;SDS011;31328;51.402;0.016;2022-12-26T08:22:31;2.47;;;0.33;;
24901;SDS011;31328;51.402;0.016;2022-12-26T08:24:57;5.70;;;0.90;;
24901;SDS011;31328;51.402;0.016;2022-12-26T08:27:24;4.93;;;1.47;;
24901;SDS011;31328;51.402;0.016;2022-12-26T08:29:50;3.10;;;0.93;;
24901;SDS011;31328;51.402;0.016;2022-12-26T08:32:16;4.40;;;0.37;;
24901;SDS011;31328;51.402;0.016;2022-12-26T08:34:43;2.57;;;0.40;;
24901;SDS011;31328;51.402;0.016;2022-12-26T08:37:09;9.60;;;1.60;;
24901;SDS011;31328;51.402;0.016;2022-12-26T08:39:35;1.37;;;0.30;;
24901;SDS011;31328;51.402;0.016;2022-12-26T08:42:02;2.70;;;0.40;;
24901;SDS011;31328;51.402;0.016;2022-12-26T08:44:28;4.77;;;0.60;;
24901;SDS011;31328;51.402;0.016;2022-12-26T08:46:55;1.73;;;0.50;;
24901;SDS011;31328;51.402;0.016;2022-12-26T08:49:21;2.40;;;0.77;;
24901;SDS011;31328;51.402;0.016;2022-12-26T08:51:48;2.33;;;0.30;;
24901;SDS011;31328;51.402;0.016;2022-12-26T08:54:14;4.27;;;0.50;;
24901;SDS011;31328;51.402;0.016;2022-12-26T08:56:40;3.40;;;0.80;;
24901;SDS011;31328;51.402;0.016;2022-12-26T08:59:07;2.77;;;0.87;;
24901;SDS011;31328;51.402;0.016;2022-12-26T09:01:33;3.40;;;0.90;;
24901;SDS011;31328;51.402;0.016;2022-12-26T09:04:01;3.40;;;0.53;;
24901;SDS011;31328;51.402;0.016;2022-12-26T09:06:30;3.20;;;0.60;;
24901;SDS011;31328;51.402;0.016;2022-12-26T09:08:58;3.77;;;0.53;;
24901;SDS011;31328;51.402;0.016;2022-12-26T09:11:25;2.23;;;0.30;;
24901;SDS011;31328;51.402;0.016;2022-12-26T09:13:52;3.07;;;0.70;;
24901;SDS011;31328;51.402;0.016;2022-12-26T09:16:25;3.13;;;0.33;;
24901;SDS011;31328;51.402;0.016;2022-12-26T09:18:54;2.80;;;0.33;;
24901;SDS011;31328;51.402;0.016;2022-12-26T09:21:24;1.57;;;0.23;;
24901;SDS011;31328;51.402;0.016;2022-12-26T09:23:54;2.47;;;0.30;;
24901;SDS011;31328;51.402;0.016;2022-12-26T09:26:22;1.83;;;0.83;;
24901;SDS011;31328;51.402;0.016;2022-12-26T09:28:48;1.90;;;0.60;;
24901;SDS011;31328;51.402;0.016;2022-12-26T09:31:19;3.90;;;0.70;;
24901;SDS011;31328;51.402;0.016;2022-12-26T09:33:47;3.70;;;1.13;;
24901;SDS011;31328;51.402;0.016;2022-12-26T09:36:17;2.77;;;0.60;;
24901;SDS011;31328;51.402;0.016;2022-12-26T09:38:47;3.20;;;1.17;;
24901;SDS011;31328;51.402;0.016;2022-12-26T09:43:52;1.20;;;0.50;;
24901;SDS011;31328;51.402;0.016;2022-12-26T09:49:33;1.77;;;0.40;;
24901;SDS011;31328;51.402;0.016;2022-12-26T09:51:59;1.20;;;0.43;;
24901;SDS011;31328;51.402;0.016;2022-12-26T09:54:34;2.27;;;0.40;;
24901;SDS011;31328;51.402;0.016;2022-12-26T09:57:10;2.10;;;0.53;;
24901;SDS011;31328;51.402;0.016;2022-12-26T09:59:49;2.00;;;0.40;;
24901;SDS011;31328;51.402;0.016;2022-12-26T10:02:38;3.10;;;0.40;;
24901;SDS011;31328;51.402;0.016;2022-12-26T10:05:04;1.23;;;0.20;;
24901;SDS011;31328;51.402;0.016;2022-12-26T10:07:36;1.37;;;0.37;;
24901;SDS011;31328;51.402;0.016;2022-12-26T10:10:23;2.77;;;0.50;;
24901;SDS011;31328;51.402;0.016;2022-12-26T10:15:57;2.40;;;0.33;;
24901;SDS011;31328;51.402;0.016;2022-12-26T10:24:13;1.90;;;0.30;;
24901;SDS011;31328;51.402;0.016;2022-12-26T10:26:44;4.50;;;1.13;;
24901;SDS011;31328;51.402;0.016;2022-12-26T10:29:22;4.63;;;0.43;;
24901;SDS011;31328;51.402;0.016;2022-12-26T10:31:59;1.57;;;0.40;;
24901;SDS011;31328;51.402;0.016;2022-12-26T10:34:35;0.73;;;0.30;;
24901;SDS011;31328;51.402;0.016;2022-12-26T10:37:17;1.37;;;0.30;;
24901;SDS011;31328;51.402;0.016;2022-12-26T10:39:59;1.00;;;0.30;;
24901;SDS011;31328;51.402;0.016;2022-12-26T10:42:49;1.97;;;0.87;;
24901;SDS011;31328;51.402;0.016;2022-12-26T10:45:31;1.20;;;0.20;;
24901;SDS011;31328;51.402;0.016;2022-12-26T10:48:11;2.83;;;0.32;;
24901;SDS011;31328;51.402;0.016;2022-12-26T10:50:38;2.90;;;0.30;;
24901;SDS011;31328;51.402;0.016;2022-12-26T10:53:09;3.03;;;0.30;;
24901;SDS011;31328;51.402;0.016;2022-12-26T10:55:39;2.57;;;0.30;;
24901;SDS011;31328;51.402;0.016;2022-12-26T10:58:08;3.07;;;0.57;;
24901;SDS011;31328;51.402;0.016;2022-12-26T11:00:45;3.03;;;0.57;;
24901;SDS011;31328;51.402;0.016;2022-12-26T11:03:16;4.80;;;0.43;;
24901;SDS011;31328;51.402;0.016;2022-12-26T11:10:45;2.80;;;0.67;;
24901;SDS011;31328;51.402;0.016;2022-12-26T11:13:26;2.57;;;0.70;;
24901;SDS011;31328;51.402;0.016;2022-12-26T11:15:53;2.20;;;0.50;;
24901;SDS011;31328;51.402;0.016;2022-12-26T11:18:21;2.53;;;0.60;;
24901;SDS011;31328;51.402;0.016;2022-12-26T11:23:43;5.60;;;0.93;;
24901;SDS011;31328;51.402;0.016;2022-12-26T11:26:44;3.67;;;0.57;;
24901;SDS011;31328;51.402;0.016;2022-12-26T11:29:19;2.90;;;0.83;;
24901;SDS011;31328;51.402;0.016;2022-12-26T11:32:13;2.87;;;0.77;;
24901;SDS011;31328;51.402;0.016;2022-12-26T11:34:45;2.47;;;0.30;;
24901;SDS011;31328;51.402;0.016;2022-12-26T11:37:25;3.80;;;0.60;;
24901;SDS011;31328;51.402;0.016;2022-12-26T11:39:54;3.03;;;0.60;;
24901;SDS011;31328;51.402;0.016;2022-12-26T11:42:22;1.43;;;0.47;;
24901;SDS011;31328;51.402;0.016;2022-12-26T11:44:50;2.87;;;0.40;;
24901;SDS011;31328;51.402;0.016;2022-12-26T11:47:27;4.87;;;1.00;;
24901;SDS011;31328;51.402;0.016;2022-12-26T11:52:44;3.10;;;0.90;;
24901;SDS011;31328;51.402;0.016;2022-12-26T12:02:59;3.53;;;0.47;;
24901;SDS011;31328;51.402;0.016;2022-12-26T12:21:43;2.30;;;0.70;;
24901;SDS011;31328;51.402;0.016;2022-12-26T12:24:18;2.00;;;0.60;;
24901;SDS011;31328;51.402;0.016;2022-12-26T12:32:28;4.27;;;0.60;;
24901;SDS011;31328;51.402;0.016;2022-12-26T12:35:06;4.33;;;0.63;;
24901;SDS011;31328;51.402;0.016;2022-12-26T12:37:52;5.03;;;1.73;;
24901;SDS011;31328;51.402;0.016;2022-12-26T12:45:55;6.07;;;1.00;;
24901;SDS011;31328;51.402;0.016;2022-12-26T12:48:40;3.27;;;0.87;;
24901;SDS011;31328;51.402;0.016;2022-12-26T13:03:04;4.13;;;0.63;;
24901;SDS011;31328;51.402;0.016;2022-12-26T13:06:07;3.50;;;0.83;;
24901;SDS011;31328;51.402;0.016;2022-12-26T13:11:25;3.17;;;0.50;;
24901;SDS011;31328;51.402;0.016;2022-12-26T13:16:39;4.30;;;0.80;;
24901;SDS011;31328;51.402;0.016;2022-12-26T13:19:21;4.23;;;1.13;;
24901;SDS011;31328;51.402;0.016;2022-12-26T13:21:51;2.73;;;0.70;;
24901;SDS011;31328;51.402;0.016;2022-12-26T13:24:35;4.53;;;1.00;;
24901;SDS011;31328;51.402;0.016;2022-12-26T13:27:13;3.00;;;0.53;;
24901;SDS011;31328;51.402;0.016;2022-12-26T13:29:44;3.87;;;1.40;;
24901;SDS011;31328;51.402;0.016;2022-12-26T13:34:44;4.27;;;0.70;;
24901;SDS011;31328;51.402;0.016;2022-12-26T13:40:05;4.70;;;0.80;;
24901;SDS011;31328;51.402;0.016;2022-12-26T13:42:43;2.45;;;0.70;;
24901;SDS011;31328;51.402;0.016;2022-12-26T13:55:57;4.73;;;1.27;;
24901;SDS011;31328;51.402;0.016;2022-12-26T14:01:43;2.30;;;0.57;;
24901;SDS011;31328;51.402;0.016;2022-12-26T14:12:09;4.53;;;1.25;;
24901;SDS011;31328;51.402;0.016;2022-12-26T14:28:52;5.53;;;1.20;;
24901;SDS011;31328;51.402;0.016;2022-12-26T14:36:46;2.47;;;0.70;;
24901;SDS011;31328;51.402;0.016;2022-12-26T14:42:29;3.50;;;0.83;;
24901;SDS011;31328;51.402;0.016;2022-12-26T14:47:53;4.27;;;1.17;;
24901;SDS011;31328;51.402;0.016;2022-12-26T14:50:33;7.30;;;1.10;;
24901;SDS011;31328;51.402;0.016;2022-12-26T14:55:55;4.80;;;1.40;;
24901;SDS011;31328;51.402;0.016;2022-12-26T15:06:19;5.30;;;1.63;;
24901;SDS011;31328;51.402;0.016;2022-12-26T15:09:09;2.30;;;0.77;;
24901;SDS011;31328;51.402;0.016;2022-12-26T15:32:41;5.07;;;1.63;;
24901;SDS011;31328;51.402;0.016;2022-12-26T15:35:30;5.13;;;0.90;;
24901;SDS011;31328;51.402;0.016;2022-12-26T15:40:51;3.13;;;0.80;;
24901;SDS011;31328;51.402;0.016;2022-12-26T15:46:21;5.30;;;1.37;;
24901;SDS011;31328;51.402;0.016;2022-12-26T15:49:07;5.30;;;0.97;;
24901;SDS011;31328;51.402;0.016;2022-12-26T15:52:21;2.03;;;0.93;;
24901;SDS011;31328;51.402;0.016;2022-12-26T16:00:30;4.63;;;1.23;;
24901;SDS011;31328;51.402;0.016;2022-12-26T16:03:19;4.90;;;1.20;;
24901;SDS011;31328;51.402;0.016;2022-12-26T16:05:54;4.43;;;0.90;;
24901;SDS011;31328;51.402;0.016;2022-12-26T16:11:25;4.93;;;1.47;;
24901;SDS011;31328;51.402;0.016;2022-12-26T16:13:59;3.70;;;1.23;;
24901;SDS011;31328;51.402;0.016;2022-12-26T16:16:34;3.30;;;1.33;;
24901;SDS011;31328;51.402;0.016;2022-12-26T16:21:44;6.33;;;0.90;;
24901;SDS011;31328;51.402;0.016;2022-12-26T16:24:37;7.40;;;1.00;;
24901;SDS011;31328;51.402;0.016;2022-12-26T16:27:07;2.50;;;0.77;;
24901;SDS011;31328;51.402;0.016;2022-12-26T16:29:42;7.03;;;1.20;;
24901;SDS011;31328;51.402;0.016;2022-12-26T16:32:15;3.03;;;1.33;;
24901;SDS011;31328;51.402;0.016;2022-12-26T16:34:46;3.30;;;0.87;;
24901;SDS011;31328;51.402;0.016;2022-12-26T16:37:18;4.87;;;1.00;;
24901;SDS011;31328;51.402;0.016;2022-12-26T16:42:32;4.10;;;0.97;;
24901;SDS011;31328;51.402;0.016;2022-12-26T16:45:00;4.33;;;1.40;;
24901;SDS011;31328;51.402;0.016;2022-12-26T16:47:27;3.80;;;1.10;;
24901;SDS011;31328;51.402;0.016;2022-12-26T16:49:56;3.53;;;1.00;;
24901;SDS011;31328;51.402;0.016;2022-12-26T16:52:33;4.20;;;1.00;;
24901;SDS011;31328;51.402;0.016;2022-12-26T16:57:50;2.03;;;0.70;;
24901;SDS011;31328;51.402;0.016;2022-12-26T17:00:21;5.47;;;1.30;;
24901;SDS011;31328;51.402;0.016;2022-12-26T17:02:49;4.30;;;1.00;;
24901;SDS011;31328;51.402;0.016;2022-12-26T17:08:01;2.87;;;0.90;;
24901;SDS011;31328;51.402;0.016;2022-12-26T17:10:32;2.20;;;0.90;;
24901;SDS011;31328;51.402;0.016;2022-12-26T17:13:04;3.20;;;1.67;;
24901;SDS011;31328;51.402;0.016;2022-12-26T17:15:35;4.77;;;1.10;;
24901;SDS011;31328;51.402;0.016;2022-12-26T17:21:13;3.63;;;0.90;;
24901;SDS011;31328;51.402;0.016;2022-12-26T17:23:45;4.40;;;1.10;;
24901;SDS011;31328;51.402;0.016;2022-12-26T17:26:47;3.63;;;1.50;;
24901;SDS011;31328;51.402;0.016;2022-12-26T17:29:35;5.37;;;1.00;;
24901;SDS011;31328;51.402;0.016;2022-12-26T17:32:15;3.93;;;1.00;;
24901;SDS011;31328;51.402;0.016;2022-12-26T17:35:26;6.37;;;1.00;;
24901;SDS011;31328;51.402;0.016;2022-12-26T17:37:56;2.20;;;0.70;;
24901;SDS011;31328;51.402;0.016;2022-12-26T17:40:28;3.10;;;1.20;;
24901;SDS011;31328;51.402;0.016;2022-12-26T17:45:31;4.23;;;1.17;;
24901;SDS011;31328;51.402;0.016;2022-12-26T17:47:57;2.47;;;0.80;;
24901;SDS011;31328;51.402;0.016;2022-12-26T17:50:27;2.70;;;1.00;;
24901;SDS011;31328;51.402;0.016;2022-12-26T17:53:30;2.20;;;0.70;;
24901;SDS011;31328;51.402;0.016;2022-12-26T17:55:55;3.07;;;1.00;;
24901;SDS011;31328;51.402;0.016;2022-12-26T17:58:22;8.97;;;1.20;;
24901;SDS011;31328;51.402;0.016;2022-12-26T18:00:49;3.30;;;1.27;;
24901;SDS011;31328;51.402;0.016;2022-12-26T18:03:16;5.03;;;1.27;;
24901;SDS011;31328;51.402;0.016;2022-12-26T18:05:43;4.03;;;1.10;;
24901;SDS011;31328;51.402;0.016;2022-12-26T18:08:18;2.20;;;0.90;;
24901;SDS011;31328;51.402;0.016;2022-12-26T18:11:00;3.23;;;1.03;;
24901;SDS011;31328;51.402;0.016;2022-12-26T18:13:28;3.27;;;1.50;;
24901;SDS011;31328;51.402;0.016;2022-12-26T18:15:55;3.23;;;1.17;;
24901;SDS011;31328;51.402;0.016;2022-12-26T18:18:44;3.07;;;0.90;;
24901;SDS011;31328;51.402;0.016;2022-12-26T18:21:10;5.80;;;1.07;;
24901;SDS011;31328;51.402;0.016;2022-12-26T18:23:38;2.53;;;0.90;;
24901;SDS011;31328;51.402;0.016;2022-12-26T18:26:06;3.10;;;1.00;;
24901;SDS011;31328;51.402;0.016;2022-12-26T18:28:36;1.53;;;0.83;;
24901;SDS011;31328;51.402;0.016;2022-12-26T18:31:03;2.73;;;1.10;;
24901;SDS011;31328;51.402;0.016;2022-12-26T18:33:29;3.53;;;1.20;;
24901;SDS011;31328;51.402;0.016;2022-12-26T18:35:55;6.23;;;1.50;;
24901;SDS011;31328;51.402;0.016;2022-12-26T18:38:22;2.73;;;1.00;;
24901;SDS011;31328;51.402;0.016;2022-12-26T18:40:49;1.47;;;0.90;;
24901;SDS011;31328;51.402;0.016;2022-12-26T18:43:18;5.93;;;1.50;;
24901;SDS011;31328;51.402;0.016;2022-12-26T18:45:44;4.27;;;1.10;;
24901;SDS011;31328;51.402;0.016;2022-12-26T18:48:14;2.60;;;1.30;;
24901;SDS011;31328;51.402;0.016;2022-12-26T18:50:41;5.80;;;1.47;;
24901;SDS011;31328;51.402;0.016;2022-12-26T18:53:08;2.17;;;1.20;;
24901;SDS011;31328;51.402;0.016;2022-12-26T18:55:35;3.73;;;1.23;;
24901;SDS011;31328;51.402;0.016;2022-12-26T18:58:01;4.00;;;1.10;;
24901;SDS011;31328;51.402;0.016;2022-12-26T19:00:28;2.47;;;1.00;;
24901;SDS011;31328;51.402;0.016;2022-12-26T19:02:55;3.20;;;1.20;;
24901;SDS011;31328;51.402;0.016;2022-12-26T19:05:25;2.50;;;0.70;;
24901;SDS011;31328;51.402;0.016;2022-12-26T19:07:56;3.10;;;1.23;;
24901;SDS011;31328;51.402;0.016;2022-12-26T19:10:24;3.13;;;0.80;;
24901;SDS011;31328;51.402;0.016;2022-12-26T19:12:55;5.43;;;2.10;;
24901;SDS011;31328;51.402;0.016;2022-12-26T19:15:24;3.27;;;1.00;;
24901;SDS011;31328;51.402;0.016;2022-12-26T19:17:50;3.53;;;1.40;;
24901;SDS011;31328;51.402;0.016;2022-12-26T19:20:20;3.50;;;0.90;;
24901;SDS011;31328;51.402;0.016;2022-12-26T19:22:48;2.47;;;0.93;;